createdAt,value
2019-05-15T00:01:08.512Z,4.97
2019-05-15T00:03:39.156Z,5.03
2019-05-15T00:06:08.437Z,5.08
2019-05-15T00:08:38.725Z,4.83
2019-05-15T00:11:08.421Z,5.10
2019-05-15T00:13:39.002Z,5.50
2019-05-15T00:16:08.475Z,4.50
2019-05-15T00:18:39.025Z,5.03
2019-05-15T00:21:09.261Z,4.42
2019-05-15T00:23:38.747Z,4.90
2019-05-15T00:26:09.226Z,4.83
2019-05-15T00:28:38.851Z,5.37
2019-05-15T00:31:09.052Z,5.62
2019-05-15T00:33:39.342Z,4.60
2019-05-15T00:36:08.728Z,5.10
2019-05-15T00:38:39.006Z,5.30
2019-05-15T00:41:09.433Z,4.70
2019-05-15T00:43:38.718Z,4.90
2019-05-15T00:46:09.132Z,5.25
2019-05-15T00:48:39.950Z,5.83
2019-05-15T00:51:08.460Z,4.50
2019-05-15T00:53:39.025Z,4.37
2019-05-15T00:56:08.947Z,4.80
2019-05-15T00:58:39.924Z,4.95
2019-05-15T01:01:08.418Z,4.45
2019-05-15T01:03:38.777Z,4.45
2019-05-15T01:06:08.347Z,5.75
2019-05-15T01:08:39.050Z,4.58
2019-05-15T01:11:09.059Z,4.67
2019-05-15T01:13:38.914Z,4.92
2019-05-15T01:16:09.198Z,5.25
2019-05-15T01:18:38.588Z,4.70
2019-05-15T01:21:08.352Z,4.70
2019-05-15T01:23:39.136Z,5.75
2019-05-15T01:26:08.340Z,4.72
2019-05-15T01:28:38.466Z,5.22
2019-05-15T01:31:08.577Z,4.80
2019-05-15T01:33:39.008Z,4.20
2019-05-15T01:36:08.461Z,4.85
2019-05-15T01:38:38.892Z,4.83
2019-05-15T01:41:09.733Z,5.85
2019-05-15T01:43:38.260Z,4.72
2019-05-15T01:46:08.356Z,5.15
2019-05-15T01:48:38.728Z,5.00
2019-05-15T01:51:09.316Z,4.60
2019-05-15T01:53:38.614Z,5.35
2019-05-15T01:56:08.441Z,4.50
2019-05-15T01:58:38.273Z,5.50
2019-05-15T02:01:08.195Z,4.80
2019-05-15T02:03:38.500Z,4.75
2019-05-15T02:06:08.220Z,4.90
2019-05-15T02:08:39.329Z,5.05
2019-05-15T02:11:09.203Z,5.00
2019-05-15T02:13:38.867Z,4.60
2019-05-15T02:16:08.374Z,5.67
2019-05-15T02:18:39.164Z,4.83
2019-05-15T02:21:10.167Z,4.72
2019-05-15T02:23:38.762Z,4.85
2019-05-15T02:26:07.968Z,5.20
2019-05-15T02:28:38.410Z,4.72
2019-05-15T02:31:10.215Z,5.28
2019-05-15T02:33:39.902Z,5.97
2019-05-15T02:36:09.706Z,5.03
2019-05-15T02:38:40.926Z,5.08
2019-05-15T02:41:09.890Z,4.97
2019-05-15T02:43:39.282Z,5.22
2019-05-15T02:46:10.143Z,5.47
2019-05-15T02:48:40.937Z,5.15
2019-05-15T02:51:09.743Z,5.58
2019-05-15T02:53:39.851Z,4.75
2019-05-15T02:56:09.500Z,5.40
2019-05-15T02:58:39.762Z,4.50
2019-05-15T03:01:09.428Z,4.90
2019-05-15T03:03:39.002Z,5.10
2019-05-15T03:06:09.924Z,4.97
2019-05-15T03:08:39.823Z,5.95
2019-05-15T03:11:09.735Z,4.90
2019-05-15T03:13:39.340Z,5.42
2019-05-15T03:16:10.041Z,5.10
2019-05-15T03:18:39.788Z,4.80
2019-05-15T03:21:09.594Z,5.35
2019-05-15T03:23:40.477Z,4.90
2019-05-15T03:26:09.169Z,5.60
2019-05-15T03:28:39.139Z,5.03
2019-05-15T03:31:26.426Z,5.50
2019-05-15T03:33:45.123Z,4.87
2019-05-15T03:36:13.590Z,5.03
2019-05-15T03:38:39.700Z,5.60
2019-05-15T03:41:10.237Z,4.80
2019-05-15T03:43:39.558Z,5.40
2019-05-15T03:46:09.018Z,5.00
2019-05-15T03:48:40.244Z,6.28
2019-05-15T03:51:09.198Z,4.92
2019-05-15T03:53:40.026Z,5.50
2019-05-15T03:56:09.749Z,4.97
2019-05-15T03:58:40.000Z,4.90
2019-05-15T04:01:27.702Z,5.25
2019-05-15T04:03:39.368Z,5.30
2019-05-15T04:06:10.169Z,6.45
2019-05-15T04:08:39.280Z,5.12
2019-05-15T04:11:09.090Z,5.20
2019-05-15T04:13:39.528Z,5.15
2019-05-15T04:16:10.396Z,5.28
2019-05-15T04:18:39.727Z,5.58
2019-05-15T04:21:09.154Z,5.30
2019-05-15T04:23:39.342Z,6.20
2019-05-15T04:26:09.357Z,4.65
2019-05-15T04:28:41.835Z,5.10
2019-05-15T04:31:10.705Z,5.55
2019-05-15T04:33:40.175Z,4.72
2019-05-15T04:36:09.748Z,4.83
2019-05-15T04:38:39.398Z,5.08
2019-05-15T04:41:09.531Z,6.40
2019-05-15T04:43:44.445Z,5.15
2019-05-15T04:46:10.060Z,4.75
2019-05-15T04:48:39.777Z,4.90
2019-05-15T04:51:09.789Z,5.28
2019-05-15T04:53:39.701Z,5.35
2019-05-15T04:56:09.456Z,5.12
2019-05-15T04:58:39.437Z,6.72
2019-05-15T05:01:09.534Z,5.67
2019-05-15T05:03:39.401Z,5.40
2019-05-15T05:06:09.811Z,5.70
2019-05-15T05:08:39.708Z,5.28
2019-05-15T05:11:09.711Z,5.60
2019-05-15T05:13:39.230Z,5.20
2019-05-15T05:16:09.599Z,5.70
2019-05-15T05:18:41.471Z,4.70
2019-05-15T05:21:08.735Z,4.85
2019-05-15T05:23:37.780Z,5.58
2019-05-15T05:26:08.813Z,4.75
2019-05-15T05:28:37.933Z,4.12
2019-05-15T05:31:08.375Z,4.60
2019-05-15T05:33:38.163Z,5.15
2019-05-15T05:43:30.014Z,4.50
2019-05-15T05:45:58.581Z,4.50
2019-05-15T05:48:29.252Z,4.17
2019-05-15T05:50:58.438Z,4.20
2019-05-15T05:53:28.715Z,4.15
2019-05-15T05:55:58.045Z,4.50
2019-05-15T05:58:29.495Z,4.62
2019-05-15T06:00:58.645Z,3.80
2019-05-15T06:03:28.051Z,3.90
2019-05-15T06:05:59.081Z,3.33
2019-05-15T06:08:28.238Z,3.75
2019-05-15T06:10:58.509Z,3.70
2019-05-15T06:13:29.081Z,3.95
2019-05-15T06:15:59.051Z,3.80
2019-05-15T06:18:28.233Z,3.65
2019-05-15T06:20:58.676Z,3.60
2019-05-15T06:23:33.806Z,4.05
2019-05-15T06:25:59.287Z,3.77
2019-05-15T06:28:28.968Z,3.58
2019-05-15T06:31:00.822Z,4.40
2019-05-15T06:33:28.034Z,3.22
2019-05-15T06:35:59.064Z,3.60
2019-05-15T06:38:30.787Z,3.22
2019-05-15T06:40:58.284Z,3.40
2019-05-15T06:43:28.057Z,3.37
2019-05-15T06:45:58.416Z,3.45
2019-05-15T06:48:28.870Z,3.65
2019-05-15T06:50:58.047Z,2.90
2019-05-15T06:53:28.864Z,2.90
2019-05-15T06:55:58.475Z,2.80
2019-05-15T06:58:28.967Z,2.70
2019-05-15T07:00:59.223Z,2.67
2019-05-15T07:03:29.320Z,2.60
2019-05-15T07:05:59.767Z,3.22
2019-05-15T07:08:28.826Z,2.75
2019-05-15T07:10:57.958Z,2.65
2019-05-15T07:13:28.846Z,2.75
2019-05-15T07:15:58.542Z,2.67
2019-05-15T07:18:28.351Z,2.80
2019-05-15T07:20:58.045Z,2.50
2019-05-15T07:23:30.354Z,3.20
2019-05-15T07:25:58.732Z,2.70
2019-05-15T07:28:28.823Z,2.77
2019-05-15T07:30:58.398Z,2.60
2019-05-15T07:33:38.718Z,2.87
2019-05-15T07:35:59.053Z,2.60
2019-05-15T07:38:28.250Z,2.65
2019-05-15T07:41:01.106Z,2.92
2019-05-15T07:43:28.063Z,2.40
2019-05-15T07:45:59.055Z,2.60
2019-05-15T07:48:29.087Z,2.70
2019-05-15T07:50:59.442Z,2.58
2019-05-15T07:53:28.872Z,2.45
2019-05-15T07:56:01.282Z,2.72
2019-05-15T07:58:27.896Z,3.15
2019-05-15T08:00:59.004Z,2.50
2019-05-15T08:03:29.167Z,2.60
2019-05-15T08:06:02.129Z,2.40
2019-05-15T08:08:28.998Z,2.50
2019-05-15T08:10:57.932Z,2.72
2019-05-15T08:13:28.775Z,2.30
2019-05-15T08:15:58.037Z,2.80
2019-05-15T08:18:28.584Z,2.50
2019-05-15T08:20:58.570Z,2.70
2019-05-15T08:23:28.399Z,2.80
2019-05-15T08:25:57.997Z,2.67
2019-05-15T08:28:28.731Z,2.33
2019-05-15T08:30:58.407Z,2.50
2019-05-15T08:33:28.058Z,2.80
2019-05-15T08:35:58.805Z,2.50
2019-05-15T08:38:28.838Z,2.70
2019-05-15T08:40:59.200Z,2.50
2019-05-15T08:43:29.105Z,2.27
2019-05-15T08:45:58.663Z,2.50
2019-05-15T08:48:27.795Z,2.37
2019-05-15T08:50:57.931Z,2.50
2019-05-15T08:53:28.537Z,2.70
2019-05-15T08:55:58.790Z,2.70
2019-05-15T08:58:29.038Z,2.50
2019-05-15T09:00:58.725Z,2.33
2019-05-15T09:03:28.651Z,2.67
2019-05-15T09:05:59.033Z,2.40
2019-05-15T09:08:29.337Z,2.77
2019-05-15T09:10:58.806Z,2.80
2019-05-15T09:13:29.236Z,3.00
2019-05-15T09:15:58.941Z,2.60
2019-05-15T09:18:28.397Z,2.40
2019-05-15T09:20:59.391Z,2.30
2019-05-15T09:23:28.906Z,2.37
2019-05-15T09:25:57.974Z,2.60
2019-05-15T09:28:29.319Z,2.40
2019-05-15T09:30:59.144Z,2.90
2019-05-15T09:33:28.565Z,2.60
2019-05-15T09:35:58.302Z,2.55
2019-05-15T09:38:28.940Z,2.60
2019-05-15T09:40:58.568Z,2.42
2019-05-15T09:43:28.551Z,2.75
2019-05-15T09:45:58.305Z,2.65
2019-05-15T09:48:28.697Z,2.98
2019-05-15T09:50:58.712Z,2.62
2019-05-15T09:53:28.560Z,2.72
2019-05-15T09:55:59.736Z,2.30
2019-05-15T09:58:30.040Z,2.50
2019-05-15T10:00:57.984Z,2.80
2019-05-15T10:03:28.251Z,2.40
2019-05-15T10:05:56.936Z,3.20
2019-05-15T10:08:25.384Z,2.60
2019-05-15T10:10:53.898Z,2.25
2019-05-15T10:13:22.414Z,2.58
2019-05-15T10:15:51.379Z,2.55
2019-05-15T10:18:19.947Z,2.92
2019-05-15T10:20:49.027Z,2.47
2019-05-15T10:23:19.630Z,3.02
2019-05-15T10:25:48.517Z,2.62
2019-05-15T10:28:19.052Z,2.60
2019-05-15T10:30:49.619Z,2.40
2019-05-15T10:33:19.743Z,2.67
2019-05-15T10:35:49.187Z,2.60
2019-05-15T10:38:19.360Z,2.42
2019-05-15T10:40:59.940Z,3.15
2019-05-15T10:43:20.561Z,2.70
2019-05-15T10:45:49.986Z,2.33
2019-05-15T10:48:19.215Z,2.80
2019-05-15T10:50:47.863Z,2.60
2019-05-15T10:53:18.720Z,2.72
2019-05-15T10:55:49.616Z,2.90
2019-05-15T10:58:21.744Z,2.83
2019-05-15T11:00:49.400Z,2.80
2019-05-15T11:03:20.017Z,2.60
2019-05-15T11:05:49.278Z,2.67
2019-05-15T11:08:18.837Z,2.60
2019-05-15T11:10:49.355Z,2.70
2019-05-15T11:13:18.816Z,3.27
2019-05-15T11:15:49.191Z,3.02
2019-05-15T11:18:18.048Z,2.58
2019-05-15T11:20:48.797Z,2.87
2019-05-15T11:23:19.543Z,2.70
2019-05-15T11:25:48.763Z,2.42
2019-05-15T11:28:17.852Z,2.60
2019-05-15T11:30:49.095Z,2.55
2019-05-15T11:33:18.868Z,3.00
2019-05-15T11:35:58.076Z,2.40
2019-05-15T11:38:19.485Z,2.90
2019-05-15T11:40:47.846Z,2.60
2019-05-15T11:43:19.353Z,2.52
2019-05-15T11:45:48.191Z,2.70
2019-05-15T11:48:20.150Z,2.95
2019-05-15T11:50:47.285Z,3.00
2019-05-15T11:53:15.871Z,2.98
2019-05-15T11:55:44.454Z,2.90
2019-05-15T11:58:12.924Z,2.83
2019-05-15T12:00:41.510Z,2.80
2019-05-15T12:03:10.054Z,2.65
2019-05-15T12:05:38.908Z,2.72
2019-05-15T12:08:09.031Z,2.98
2019-05-15T12:10:38.915Z,2.80
2019-05-15T12:13:09.828Z,3.22
2019-05-15T12:15:38.875Z,2.55
2019-05-15T12:18:08.910Z,2.80
2019-05-15T12:20:39.010Z,2.70
2019-05-15T12:23:09.132Z,2.55
2019-05-15T12:25:39.479Z,2.85
2019-05-15T12:28:09.664Z,2.58
2019-05-15T12:30:40.284Z,3.25
2019-05-15T12:33:09.774Z,2.55
2019-05-15T12:38:09.953Z,2.62
2019-05-15T13:00:41.554Z,2.60
2019-05-15T13:03:10.253Z,3.10
2019-05-15T13:05:39.376Z,3.30
2019-05-15T13:08:08.537Z,2.55
2019-05-15T13:10:38.566Z,2.77
2019-05-15T13:13:09.481Z,2.65
2019-05-15T13:15:40.983Z,2.50
2019-05-15T13:18:13.965Z,2.70
2019-05-15T13:20:38.720Z,2.67
2019-05-15T13:23:08.495Z,3.40
2019-05-15T13:25:39.506Z,2.70
2019-05-15T13:28:08.853Z,2.67
2019-05-15T13:30:41.240Z,2.98
2019-05-15T13:33:09.797Z,3.17
2019-05-15T13:35:38.380Z,2.92
2019-05-15T13:38:09.527Z,3.12
2019-05-15T13:40:41.757Z,3.10
2019-05-15T13:43:08.363Z,3.02
2019-05-15T13:45:38.784Z,2.72
2019-05-15T13:48:08.955Z,2.90
2019-05-15T13:50:40.475Z,3.12
2019-05-15T13:53:10.434Z,2.83
2019-05-15T13:55:42.380Z,2.92
2019-05-15T13:58:09.124Z,3.72
2019-05-15T14:00:38.974Z,3.12
2019-05-15T14:03:09.234Z,3.80
2019-05-15T14:05:38.700Z,3.10
2019-05-15T14:08:07.697Z,3.15
2019-05-15T14:10:38.493Z,3.45
2019-05-15T14:13:06.574Z,3.62
2019-05-15T14:15:38.037Z,3.92
2019-05-15T14:18:05.837Z,3.35
2019-05-15T14:20:34.356Z,3.37
2019-05-15T14:23:02.909Z,3.33
2019-05-15T14:25:31.495Z,3.20
2019-05-15T14:28:00.012Z,3.30
2019-05-15T14:30:29.267Z,3.08
2019-05-15T14:32:59.846Z,3.60
2019-05-15T14:35:28.379Z,3.45
2019-05-15T14:38:05.863Z,3.35
2019-05-15T14:40:27.807Z,3.05
2019-05-15T14:42:59.203Z,3.50
2019-05-15T14:45:28.010Z,3.33
2019-05-15T14:47:58.178Z,3.10
2019-05-15T14:50:28.355Z,3.60
2019-05-15T14:52:58.560Z,3.42
2019-05-15T14:55:33.373Z,3.20
2019-05-15T14:57:58.797Z,3.08
2019-05-15T15:00:33.341Z,3.12
2019-05-15T15:02:58.881Z,3.45
2019-05-15T15:05:27.747Z,3.60
2019-05-15T15:07:58.568Z,3.35
2019-05-15T15:10:28.916Z,3.25
2019-05-15T15:12:58.631Z,3.22
2019-05-15T15:15:28.680Z,2.92
2019-05-15T15:17:58.448Z,3.27
2019-05-15T15:20:28.551Z,2.90
2019-05-15T15:22:58.752Z,3.00
2019-05-15T15:25:27.491Z,3.00
2019-05-15T15:27:58.472Z,3.15
2019-05-15T15:30:26.400Z,3.62
2019-05-15T15:32:54.981Z,3.02
2019-05-15T15:35:23.565Z,3.00
2019-05-15T15:37:52.156Z,2.92
2019-05-15T15:40:20.916Z,2.90
2019-05-15T15:42:49.504Z,2.98
2019-05-15T15:45:19.284Z,2.90
2019-05-15T15:47:48.174Z,3.60
2019-05-15T15:50:18.301Z,2.75
2019-05-15T15:52:48.877Z,2.95
2019-05-15T15:55:18.436Z,2.92
2019-05-15T15:57:48.706Z,3.10
2019-05-15T16:00:18.377Z,3.10
2019-05-15T16:02:48.423Z,3.10
2019-05-15T16:05:19.104Z,3.75
2019-05-15T16:07:48.508Z,3.00
2019-05-15T16:10:18.982Z,2.90
2019-05-15T16:12:49.207Z,2.62
2019-05-15T16:15:18.237Z,3.00
2019-05-15T16:17:48.849Z,2.67
2019-05-15T16:20:18.903Z,2.98
2019-05-15T16:22:48.594Z,3.60
2019-05-15T16:25:18.440Z,3.10
2019-05-15T16:27:48.803Z,3.00
2019-05-15T16:30:18.882Z,2.80
2019-05-15T16:32:47.416Z,2.60
2019-05-15T16:35:18.283Z,3.12
2019-05-15T16:37:49.005Z,2.80
2019-05-15T16:40:18.370Z,3.20
2019-05-15T16:42:48.857Z,5.17
2019-05-15T16:45:18.375Z,4.20
2019-05-15T16:47:48.020Z,4.10
2019-05-15T16:50:18.123Z,3.05
2019-05-15T16:52:48.994Z,3.08
2019-05-15T16:55:17.678Z,2.87
2019-05-15T16:57:47.942Z,3.45
2019-05-15T17:00:18.617Z,2.90
2019-05-15T17:02:48.233Z,2.98
2019-05-15T17:05:18.548Z,3.33
2019-05-15T17:07:48.834Z,2.90
2019-05-15T17:10:18.028Z,3.30
2019-05-15T17:12:49.071Z,3.17
2019-05-15T17:15:17.473Z,4.10
2019-05-15T17:17:48.598Z,3.45
2019-05-15T17:20:18.101Z,2.87
2019-05-15T17:22:48.363Z,3.25
2019-05-15T17:25:18.440Z,2.90
2019-05-15T17:27:47.657Z,3.20
2019-05-15T17:30:18.318Z,3.08
2019-05-15T17:32:49.416Z,3.90
2019-05-15T17:35:18.991Z,2.95
2019-05-15T17:37:49.160Z,3.30
2019-05-15T17:40:19.015Z,3.25
2019-05-15T17:42:49.359Z,3.33
2019-05-15T17:48:41.678Z,3.42
2019-05-15T17:51:12.025Z,3.30
2019-05-15T17:53:43.361Z,3.30
2019-05-15T17:56:14.506Z,3.58
2019-05-15T17:58:45.055Z,3.27
2019-05-15T18:01:13.817Z,3.30
2019-05-15T18:03:42.563Z,4.03
2019-05-15T18:06:11.316Z,3.40
2019-05-15T18:08:40.268Z,3.40
2019-05-15T18:11:08.963Z,3.15
2019-05-15T18:13:38.300Z,3.35
2019-05-15T18:16:13.273Z,3.20
2019-05-15T18:18:40.025Z,3.22
2019-05-15T18:21:10.669Z,3.75
2019-05-15T18:23:41.866Z,3.12
2019-05-15T18:26:12.539Z,3.50
2019-05-15T18:28:43.786Z,3.20
2019-05-15T18:31:15.152Z,3.30
2019-05-15T18:33:53.496Z,3.40
2019-05-15T18:36:17.103Z,3.30
2019-05-15T18:38:48.264Z,3.70
2019-05-15T18:41:19.999Z,3.42
2019-05-15T18:43:51.380Z,3.30
2019-05-15T18:47:18.638Z,3.33
2019-05-15T18:50:03.737Z,3.40
2019-05-15T18:52:21.784Z,3.75
2019-05-15T18:54:53.710Z,3.10
2019-05-15T18:57:24.870Z,3.30
2019-05-15T18:59:58.035Z,3.40
2019-05-15T19:02:31.126Z,3.60
2019-05-15T19:05:01.786Z,4.10
2019-05-15T19:07:35.315Z,3.30
2019-05-15T19:10:08.441Z,3.80
2019-05-15T19:12:40.208Z,3.27
2019-05-15T19:15:11.819Z,3.50
2019-05-15T19:17:43.158Z,3.25
2019-05-15T19:20:14.627Z,3.50
2019-05-15T19:22:48.249Z,4.08
2019-05-15T19:25:18.436Z,3.50
2019-05-15T19:28:42.658Z,3.50
2019-05-15T19:31:25.913Z,4.30
2019-05-15T19:33:46.839Z,3.52
2019-05-15T19:36:18.289Z,3.60
2019-05-15T19:38:50.130Z,3.30
2019-05-15T19:41:21.055Z,3.30
2019-05-15T19:43:51.981Z,3.92
2019-05-15T19:46:23.200Z,3.65
2019-05-15T19:49:48.377Z,4.20
2019-05-15T19:52:20.020Z,4.00
2019-05-15T19:54:51.538Z,3.37
2019-05-15T19:57:23.187Z,4.00
2019-05-15T19:59:54.163Z,3.77
2019-05-15T20:02:28.438Z,4.00
2019-05-15T20:04:58.733Z,4.17
2019-05-15T20:07:29.081Z,3.90
2019-05-15T20:10:53.274Z,3.70
2019-05-15T20:13:23.679Z,4.47
2019-05-15T20:15:53.408Z,4.72
2019-05-15T20:18:22.566Z,4.03
2019-05-15T20:20:52.629Z,3.75
2019-05-15T20:23:21.910Z,4.00
2019-05-15T20:25:50.677Z,4.62
2019-05-15T20:28:19.291Z,4.90
2019-05-15T20:30:48.587Z,4.40
2019-05-15T20:33:18.206Z,4.12
2019-05-15T20:35:47.981Z,3.95
2019-05-15T20:38:17.618Z,4.03
2019-05-15T20:40:48.595Z,4.17
2019-05-15T20:43:18.539Z,4.10
2019-05-15T20:45:48.474Z,4.70
2019-05-15T20:48:18.816Z,4.15
2019-05-15T20:50:49.084Z,4.10
2019-05-15T20:53:18.641Z,3.98
2019-05-15T20:55:48.564Z,3.90
2019-05-15T20:58:19.421Z,4.03
2019-05-15T21:00:49.621Z,4.10
2019-05-15T21:03:19.343Z,4.70
2019-05-15T21:05:48.808Z,4.00
2019-05-15T21:08:18.252Z,3.80
2019-05-15T21:10:49.231Z,3.85
2019-05-15T21:13:17.413Z,4.30
2019-05-15T21:15:48.322Z,4.20
2019-05-15T21:18:16.992Z,4.37
2019-05-15T21:20:48.332Z,5.28
2019-05-15T21:23:18.259Z,4.05
2019-05-15T21:25:48.422Z,4.00
2019-05-15T21:28:17.483Z,4.40
2019-05-15T21:30:45.932Z,4.28
2019-05-15T21:33:14.382Z,4.40
2019-05-15T21:35:42.980Z,4.40
2019-05-15T21:38:11.680Z,5.00
2019-05-15T21:40:40.194Z,4.50
2019-05-15T21:43:08.935Z,4.70
2019-05-15T21:45:37.687Z,4.87
2019-05-15T21:48:09.007Z,5.58
2019-05-15T21:50:38.801Z,5.80
2019-05-15T21:53:07.551Z,5.78
2019-05-15T21:55:36.231Z,5.10
2019-05-15T21:58:04.840Z,4.60
2019-05-15T22:00:38.197Z,5.67
2019-05-15T22:03:07.293Z,4.10
2019-05-15T22:05:37.976Z,4.05
2019-05-15T22:08:07.840Z,4.00
2019-05-15T22:10:38.834Z,4.20
2019-05-15T22:13:07.561Z,4.35
2019-05-15T22:15:36.141Z,4.30
2019-05-15T22:18:05.221Z,4.80
2019-05-15T22:20:33.928Z,3.80
2019-05-15T22:23:02.558Z,4.12
2019-05-15T22:25:31.136Z,4.05
2019-05-15T22:27:59.892Z,4.00
2019-05-15T22:30:30.345Z,4.25
2019-05-15T22:32:58.950Z,4.28
2019-05-15T22:35:29.557Z,5.00
2019-05-15T22:37:58.569Z,4.53
2019-05-15T22:40:28.937Z,4.30
2019-05-15T22:42:59.109Z,4.30
2019-05-15T22:45:28.507Z,4.15
2019-05-15T22:47:58.552Z,4.40
2019-05-15T22:50:28.081Z,4.67
2019-05-15T22:52:58.785Z,4.72
2019-05-15T22:55:28.904Z,4.15
2019-05-15T22:57:58.624Z,4.10
2019-05-15T23:00:28.992Z,4.45
2019-05-15T23:02:58.189Z,4.60
2019-05-15T23:05:31.396Z,4.47
2019-05-15T23:07:58.860Z,4.08
2019-05-15T23:10:29.146Z,5.10
2019-05-15T23:12:58.265Z,4.53
2019-05-15T23:15:28.226Z,4.30
2019-05-15T23:17:58.344Z,4.40
2019-05-15T23:20:28.634Z,4.42
2019-05-15T23:22:58.508Z,4.22
2019-05-15T23:25:29.015Z,4.70
2019-05-15T23:27:58.170Z,5.00
2019-05-15T23:30:28.866Z,4.15
2019-05-15T23:32:58.064Z,4.30
2019-05-15T23:35:35.472Z,4.42
2019-05-15T23:37:58.094Z,4.25
2019-05-15T23:40:28.775Z,4.10
2019-05-15T23:42:57.167Z,4.00
2019-05-15T23:45:25.797Z,4.42
2019-05-15T23:47:54.570Z,4.10
2019-05-15T23:50:23.093Z,4.00
2019-05-15T23:52:51.721Z,3.55
2019-05-15T23:55:20.234Z,3.90
2019-05-15T23:57:48.783Z,3.67
